createdAt,value
2022-08-09T00:02:28.509Z,19.64
2022-08-09T00:07:30.781Z,19.02
2022-08-09T00:12:46.402Z,18.54
2022-08-09T00:18:05.489Z,18.75
2022-08-09T00:23:56.961Z,20.85
2022-08-09T00:28:34.981Z,22.17
2022-08-09T00:33:50.313Z,22.11
2022-08-09T00:38:52.971Z,20.55
2022-08-09T00:44:16.131Z,19.59
2022-08-09T00:49:15.212Z,18.87
2022-08-09T00:54:18.854Z,18.88
2022-08-09T00:59:41.184Z,20.64
2022-08-09T01:04:48.174Z,22.02
2022-08-09T01:10:04.369Z,21.96
2022-08-09T01:15:17.072Z,20.41
2022-08-09T01:20:41.934Z,19.54
2022-08-09T01:26:20.783Z,18.91
2022-08-09T01:32:28.124Z,18.36
2022-08-09T01:36:48.793Z,18.79
2022-08-09T01:41:55.521Z,20.69
2022-08-09T01:47:05.146Z,21.58
2022-08-09T01:52:11.622Z,21.48
2022-08-09T01:57:20.389Z,20.08
2022-08-09T02:02:30.794Z,19.24
2022-08-09T02:08:35.796Z,18.68
2022-08-09T02:13:03.298Z,19.20
2022-08-09T02:18:10.514Z,20.90
2022-08-09T02:23:24.558Z,21.55
2022-08-09T02:28:39.821Z,21.07
2022-08-09T02:34:07.076Z,19.71
2022-08-09T02:39:14.397Z,18.84
2022-08-09T02:44:29.307Z,19.16
2022-08-09T02:49:41.071Z,21.10
2022-08-09T02:54:54.704Z,22.13
2022-08-09T03:00:20.855Z,21.50
2022-08-09T03:05:22.169Z,19.87
2022-08-09T03:10:25.328Z,18.86
2022-08-09T03:15:40.635Z,19.05
2022-08-09T03:20:51.486Z,20.49
2022-08-09T03:25:58.134Z,20.81
2022-08-09T03:31:04.485Z,21.04
2022-08-09T03:36:16.363Z,21.22
2022-08-09T03:41:18.692Z,21.41
2022-08-09T03:46:29.256Z,21.07
2022-08-09T03:51:55.696Z,19.68
2022-08-09T03:56:57.789Z,18.74
2022-08-09T04:02:00.361Z,18.65
2022-08-09T04:07:02.739Z,19.63
2022-08-09T04:12:12.031Z,20.01
2022-08-09T04:17:13.387Z,20.49
2022-08-09T04:22:14.914Z,21.18
2022-08-09T04:27:22.036Z,21.10
2022-08-09T04:32:33.620Z,19.81
2022-08-09T04:37:44.281Z,18.96
2022-08-09T04:42:48.471Z,18.48
2022-08-09T04:48:01.204Z,18.96
2022-08-09T04:53:06.903Z,21.07
2022-08-09T04:58:14.472Z,21.66
2022-08-09T05:03:40.035Z,20.77
2022-08-09T05:08:36.846Z,19.99
2022-08-09T05:13:39.941Z,19.57
2022-08-09T05:18:55.425Z,19.28
2022-08-09T05:24:02.385Z,19.85
2022-08-09T05:29:05.350Z,21.31
2022-08-09T05:34:06.656Z,21.49
2022-08-09T05:39:21.691Z,20.41
2022-08-09T05:44:32.696Z,19.63
2022-08-09T05:50:30.447Z,19.07
2022-08-09T05:54:56.711Z,19.28
2022-08-09T06:00:08.148Z,20.95
2022-08-09T06:05:10.623Z,21.77
2022-08-09T06:10:15.895Z,21.46
2022-08-09T06:15:19.261Z,20.45
2022-08-09T06:20:21.018Z,19.92
2022-08-09T06:25:22.300Z,19.61
2022-08-09T06:30:23.619Z,19.97
2022-08-09T06:35:55.834Z,21.02
2022-08-09T06:40:46.146Z,21.77
2022-08-09T06:46:07.908Z,21.75
2022-08-09T06:51:10.297Z,20.77
2022-08-09T06:56:11.705Z,20.16
2022-08-09T07:01:14.376Z,20.33
2022-08-09T07:06:15.653Z,21.55
2022-08-09T07:11:17.673Z,21.66
2022-08-09T07:16:41.196Z,20.72
2022-08-09T07:21:55.296Z,20.11
2022-08-09T07:26:58.683Z,19.81
2022-08-09T07:32:02.832Z,19.58
2022-08-09T07:37:04.579Z,20.26
2022-08-09T07:42:06.271Z,21.46
2022-08-09T07:47:07.801Z,21.91
2022-08-09T07:52:17.109Z,21.79
2022-08-09T07:57:20.232Z,20.96
2022-08-09T08:02:23.685Z,20.54
2022-08-09T08:08:44.262Z,20.35
2022-08-09T08:12:47.262Z,21.03
2022-08-09T08:17:58.286Z,22.17
2022-08-09T08:23:16.360Z,22.53
2022-08-09T08:28:31.942Z,22.08
2022-08-09T08:33:40.640Z,22.03
2022-08-09T08:38:54.346Z,22.25
2022-08-09T08:44:02.093Z,22.58
2022-08-09T08:49:06.668Z,23.00
2022-08-09T08:54:10.160Z,23.60
2022-08-09T08:59:21.306Z,24.06
2022-08-09T09:04:41.232Z,24.30
2022-08-09T09:10:02.027Z,24.58
2022-08-09T09:15:06.823Z,24.99
2022-08-09T09:20:15.402Z,25.39
2022-08-09T09:26:03.840Z,25.55
2022-08-09T09:31:05.307Z,25.47
2022-08-09T09:36:19.829Z,25.30
2022-08-09T09:41:32.462Z,24.92
2022-08-09T09:46:41.864Z,24.74
2022-08-09T09:51:47.741Z,24.71
2022-08-09T09:58:03.044Z,24.92
2022-08-09T10:02:17.877Z,25.21
2022-08-09T10:07:27.138Z,25.51
2022-08-09T10:12:36.868Z,25.86
2022-08-09T10:17:55.938Z,26.21
2022-08-09T10:23:00.790Z,26.60
2022-08-09T10:28:02.603Z,26.68
2022-08-09T10:33:04.055Z,26.80
2022-08-09T10:38:33.731Z,26.85
2022-08-09T10:43:46.799Z,26.75
2022-08-09T10:49:05.785Z,26.67
2022-08-09T10:54:13.299Z,26.74
2022-08-09T10:59:43.094Z,26.85
2022-08-09T11:05:25.189Z,26.89
2022-08-09T11:11:00.784Z,27.03
2022-08-09T11:16:37.026Z,27.19
2022-08-09T11:22:10.376Z,27.42
2022-08-09T11:28:04.461Z,27.58
2022-08-09T11:33:06.819Z,27.65
2022-08-09T11:38:16.747Z,27.42
2022-08-09T11:43:42.133Z,27.12
2022-08-09T11:48:57.540Z,26.92
2022-08-09T11:54:27.631Z,26.94
2022-08-09T11:59:33.675Z,27.00
2022-08-09T12:04:37.337Z,27.15
2022-08-09T12:09:39.343Z,26.98
2022-08-09T12:15:08.225Z,26.83
2022-08-09T12:20:16.799Z,26.93
2022-08-09T12:25:36.441Z,27.06
2022-08-09T12:30:39.652Z,26.98
2022-08-09T12:35:41.793Z,26.73
2022-08-09T12:40:46.278Z,26.25
2022-08-09T12:45:59.376Z,25.67
2022-08-09T12:51:03.946Z,25.07
2022-08-09T12:56:43.762Z,24.74
2022-08-09T13:01:49.914Z,24.47
2022-08-09T13:06:51.603Z,24.28
2022-08-09T13:12:02.568Z,24.12
2022-08-09T13:17:08.631Z,24.04
2022-08-09T13:22:37.219Z,24.06
2022-08-09T13:27:40.090Z,24.08
2022-08-09T13:32:53.009Z,24.05
2022-08-09T13:37:57.170Z,24.10
2022-08-09T13:42:58.400Z,24.10
2022-08-09T13:47:59.647Z,24.11
2022-08-09T13:53:00.833Z,24.20
2022-08-09T13:58:02.444Z,24.27
2022-08-09T14:04:01.552Z,24.34
2022-08-09T14:08:31.822Z,24.46
2022-08-09T14:14:23.329Z,24.54
2022-08-09T14:18:55.484Z,24.72
2022-08-09T14:24:01.386Z,24.96
2022-08-09T14:30:18.304Z,25.33
2022-08-09T14:34:35.472Z,25.48
2022-08-09T14:39:47.374Z,25.46
2022-08-09T14:44:59.964Z,25.45
2022-08-09T14:50:04.441Z,25.49
2022-08-09T14:55:06.488Z,25.51
2022-08-09T15:00:10.744Z,25.37
2022-08-09T15:05:13.160Z,25.11
2022-08-09T15:10:17.410Z,24.84
2022-08-09T15:15:19.335Z,24.66
2022-08-09T15:21:55.663Z,24.53
2022-08-09T15:25:42.431Z,24.53
2022-08-09T15:30:59.230Z,24.58
2022-08-09T15:36:05.833Z,24.55
2022-08-09T15:41:09.374Z,24.38
2022-08-09T15:46:33.871Z,24.19
2022-08-09T15:52:03.737Z,24.06
2022-08-09T15:56:53.310Z,23.96
2022-08-09T16:01:54.639Z,23.84
2022-08-09T16:06:58.289Z,23.68
2022-08-09T16:12:04.108Z,23.52
2022-08-09T16:17:05.212Z,23.39
2022-08-09T16:22:06.975Z,23.39
2022-08-09T16:27:17.170Z,23.42
2022-08-09T16:32:34.406Z,23.37
2022-08-09T16:37:55.156Z,23.36
2022-08-09T16:42:59.399Z,23.61
2022-08-09T16:48:38.011Z,24.26
2022-08-09T16:53:26.784Z,24.28
2022-08-09T16:58:35.819Z,23.88
2022-08-09T17:03:38.490Z,23.35
2022-08-09T17:09:03.084Z,22.95
2022-08-09T17:14:04.594Z,22.68
2022-08-09T17:19:06.202Z,22.64
2022-08-09T17:24:21.142Z,22.45
2022-08-09T17:29:38.063Z,22.20
2022-08-09T17:35:07.843Z,22.00
2022-08-09T17:40:06.139Z,21.89
2022-08-09T17:45:26.873Z,21.76
2022-08-09T17:50:36.044Z,21.59
2022-08-09T17:55:49.633Z,21.42
2022-08-09T18:00:51.726Z,21.23
2022-08-09T18:05:56.412Z,21.07
2022-08-09T18:11:01.736Z,20.92
2022-08-09T18:16:08.991Z,20.76
2022-08-09T18:21:22.997Z,20.59
2022-08-09T18:26:25.172Z,20.43
2022-08-09T18:31:51.014Z,20.28
2022-08-09T18:36:49.500Z,20.13
2022-08-09T18:41:52.857Z,19.99
2022-08-09T18:47:05.149Z,19.84
2022-08-09T18:52:12.435Z,19.70
2022-08-09T18:57:14.848Z,19.59
2022-08-09T19:02:17.622Z,19.46
2022-08-09T19:07:18.824Z,19.34
2022-08-09T19:12:22.599Z,19.21
2022-08-09T19:17:24.162Z,19.08
2022-08-09T19:22:32.950Z,18.95
2022-08-09T19:27:34.971Z,18.83
2022-08-09T19:32:38.188Z,18.72
2022-08-09T19:37:54.526Z,18.61
2022-08-09T19:43:03.230Z,18.48
2022-08-09T19:48:06.692Z,18.35
2022-08-09T19:53:11.981Z,18.67
2022-08-09T19:58:16.459Z,19.85
2022-08-09T20:04:07.524Z,20.49
2022-08-09T20:08:41.016Z,20.94
2022-08-09T20:13:53.656Z,21.33
2022-08-09T20:19:41.813Z,21.21
2022-08-09T20:24:29.195Z,20.15
2022-08-09T20:29:37.767Z,19.47
2022-08-09T20:34:39.617Z,19.06
2022-08-09T20:40:15.256Z,19.87
2022-08-09T20:45:58.643Z,20.63
2022-08-09T20:50:47.731Z,21.06
2022-08-09T20:55:47.407Z,20.86
2022-08-09T21:01:33.132Z,19.71
2022-08-09T21:06:29.390Z,18.91
2022-08-09T21:16:54.198Z,17.94
2022-08-09T21:21:57.591Z,17.59
2022-08-09T21:27:00.226Z,18.00
2022-08-09T21:32:17.277Z,19.70
2022-08-09T21:37:22.942Z,20.20
2022-08-09T21:42:28.400Z,20.68
2022-08-09T21:47:30.161Z,20.46
2022-08-09T21:52:32.908Z,19.17
2022-08-09T21:57:39.170Z,18.29
2022-08-09T22:02:59.875Z,18.38
2022-08-09T22:08:01.590Z,19.53
2022-08-09T22:13:07.617Z,20.13
2022-08-09T22:18:12.748Z,20.42
2022-08-09T22:23:14.560Z,20.58
2022-08-09T22:28:29.438Z,20.71
2022-08-09T22:33:37.633Z,20.79
2022-08-09T22:38:50.097Z,20.84
2022-08-09T22:44:01.151Z,20.92
2022-08-09T22:49:09.992Z,21.04
2022-08-09T22:54:11.826Z,21.06
2022-08-09T22:59:55.620Z,20.55
2022-08-09T23:04:33.957Z,19.02
2022-08-09T23:09:39.549Z,18.01
2022-08-09T23:14:42.223Z,17.79
2022-08-09T23:20:00.909Z,18.74
2022-08-09T23:25:05.393Z,19.44
2022-08-09T23:30:07.342Z,19.80
2022-08-09T23:35:08.727Z,20.07
2022-08-09T23:40:10.361Z,20.25
2022-08-09T23:45:11.516Z,20.41
2022-08-09T23:50:32.434Z,20.54
2022-08-09T23:55:37.933Z,20.59
